createdAt,value
2023-05-23T00:01:07.157Z,2.75
2023-05-23T00:03:34.825Z,2.58
2023-05-23T00:06:04.529Z,1.98
2023-05-23T00:08:31.974Z,2.88
2023-05-23T00:10:59.402Z,2.90
2023-05-23T00:13:26.871Z,2.47
2023-05-23T00:15:54.376Z,2.47
2023-05-23T00:18:21.853Z,2.20
2023-05-23T00:20:49.358Z,3.22
2023-05-23T00:23:20.744Z,2.08
2023-05-23T00:25:53.438Z,2.15
2023-05-23T00:28:22.277Z,1.95
2023-05-23T00:30:50.006Z,2.42
2023-05-23T00:33:17.725Z,2.35
2023-05-23T00:35:45.216Z,2.65
2023-05-23T00:38:12.646Z,2.85
2023-05-23T00:40:41.651Z,2.90
2023-05-23T00:43:09.233Z,2.40
2023-05-23T00:45:36.756Z,3.20
2023-05-23T00:48:06.193Z,3.28
2023-05-23T00:50:33.717Z,3.65
2023-05-23T00:53:02.552Z,2.53
2023-05-23T00:55:31.120Z,2.53
2023-05-23T00:58:00.173Z,3.10
2023-05-23T01:00:28.037Z,2.95
2023-05-23T01:02:55.722Z,2.83
2023-05-23T01:05:24.885Z,2.78
2023-05-23T01:07:52.901Z,3.05
2023-05-23T01:10:22.925Z,3.10
2023-05-23T01:13:07.715Z,3.20
2023-05-23T01:15:41.470Z,2.70
2023-05-23T01:18:14.381Z,3.00
2023-05-23T01:20:46.626Z,4.28
2023-05-23T01:23:40.430Z,3.33
2023-05-23T01:26:26.211Z,2.25
2023-05-23T01:28:57.178Z,2.70
2023-05-23T01:31:28.253Z,2.78
2023-05-23T01:33:56.873Z,2.25
2023-05-23T01:36:24.322Z,2.92
2023-05-23T01:38:51.792Z,2.85
2023-05-23T01:41:19.209Z,2.22
2023-05-23T01:43:48.028Z,2.50
2023-05-23T01:46:17.737Z,3.08
2023-05-23T01:48:46.409Z,2.63
2023-05-23T01:51:14.900Z,3.00
2023-05-23T01:53:43.168Z,2.75
2023-05-23T01:56:10.863Z,2.78
2023-05-23T01:58:38.484Z,3.25
2023-05-23T02:01:06.146Z,2.67
2023-05-23T02:03:35.357Z,2.72
2023-05-23T02:06:03.059Z,3.30
2023-05-23T02:08:30.464Z,2.80
2023-05-23T02:10:57.919Z,3.10
2023-05-23T02:13:25.412Z,2.88
2023-05-23T02:15:52.885Z,2.70
2023-05-23T02:18:21.476Z,3.83
2023-05-23T02:20:50.718Z,2.90
2023-05-23T02:23:18.156Z,3.47
2023-05-23T02:25:45.626Z,2.85
2023-05-23T02:28:13.695Z,2.78
2023-05-23T02:30:41.114Z,2.92
2023-05-23T02:33:09.099Z,3.15
2023-05-23T02:35:36.626Z,2.53
2023-05-23T02:38:05.700Z,3.58
2023-05-23T02:40:33.134Z,2.55
2023-05-23T02:43:00.756Z,3.15
2023-05-23T02:45:28.196Z,2.65
2023-05-23T02:47:55.896Z,2.15
2023-05-23T02:50:23.404Z,2.65
2023-05-23T02:52:50.837Z,2.50
2023-05-23T02:55:19.683Z,2.45
2023-05-23T02:57:47.238Z,2.58
2023-05-23T03:00:15.622Z,3.15
2023-05-23T03:02:43.550Z,3.13
2023-05-23T03:05:11.056Z,2.72
2023-05-23T03:07:38.587Z,2.30
2023-05-23T03:10:07.320Z,2.85
2023-05-23T03:12:37.038Z,2.35
2023-05-23T03:15:05.460Z,2.45
2023-05-23T03:17:33.089Z,2.47
2023-05-23T03:20:00.661Z,2.47
2023-05-23T03:22:28.262Z,2.75
2023-05-23T03:24:55.969Z,2.45
2023-05-23T03:27:23.560Z,2.88
2023-05-23T03:29:52.472Z,2.95
2023-05-23T03:32:20.037Z,2.42
2023-05-23T03:34:47.760Z,3.42
2023-05-23T03:37:15.328Z,3.30
2023-05-23T03:39:42.881Z,3.33
2023-05-23T03:42:10.443Z,2.33
2023-05-23T03:44:37.979Z,2.17
2023-05-23T03:47:07.379Z,3.53
2023-05-23T03:49:34.996Z,2.40
2023-05-23T03:52:02.634Z,2.50
2023-05-23T03:54:30.162Z,2.75
2023-05-23T03:56:57.774Z,2.70
2023-05-23T03:59:25.357Z,2.85
2023-05-23T04:01:52.917Z,2.92
2023-05-23T04:04:22.043Z,2.90
2023-05-23T04:06:49.608Z,2.65
2023-05-23T04:09:17.243Z,3.05
2023-05-23T04:11:45.171Z,2.67
2023-05-23T04:14:13.699Z,3.08
2023-05-23T04:16:42.710Z,3.53
2023-05-23T04:19:10.686Z,3.10
2023-05-23T04:21:39.525Z,3.30
2023-05-23T04:24:08.231Z,2.75
2023-05-23T04:26:36.375Z,4.18
2023-05-23T04:29:04.448Z,3.40
2023-05-23T04:31:33.879Z,3.20
2023-05-23T04:34:02.400Z,3.28
2023-05-23T04:36:30.206Z,3.13
2023-05-23T04:38:59.023Z,2.90
2023-05-23T04:41:26.772Z,3.28
2023-05-23T04:43:54.707Z,3.20
2023-05-23T04:46:26.677Z,3.03
2023-05-23T04:48:55.033Z,3.47
2023-05-23T04:51:22.835Z,2.85
2023-05-23T04:53:50.632Z,3.00
2023-05-23T04:56:21.795Z,3.38
2023-05-23T04:58:49.554Z,3.22
2023-05-23T05:01:17.056Z,2.92
2023-05-23T05:03:44.502Z,3.22
2023-05-23T05:06:12.103Z,3.50
2023-05-23T05:08:40.649Z,2.63
2023-05-23T05:11:08.152Z,3.65
2023-05-23T05:13:37.097Z,3.17
2023-05-23T05:16:04.618Z,3.30
2023-05-23T05:18:32.184Z,3.17
2023-05-23T05:20:59.678Z,3.30
2023-05-23T05:23:28.810Z,3.05
2023-05-23T05:25:57.229Z,2.67
2023-05-23T05:28:24.676Z,2.30
2023-05-23T05:30:54.395Z,3.22
2023-05-23T05:33:23.567Z,3.03
2023-05-23T05:35:52.216Z,2.63
2023-05-23T05:38:19.696Z,3.78
2023-05-23T05:40:47.375Z,3.42
2023-05-23T05:43:15.029Z,3.70
2023-05-23T05:45:42.514Z,3.28
2023-05-23T05:48:11.820Z,3.13
2023-05-23T05:50:39.922Z,3.30
2023-05-23T05:53:08.182Z,3.95
2023-05-23T05:55:36.843Z,3.75
2023-05-23T05:58:04.606Z,3.85
2023-05-23T06:00:33.234Z,4.90
2023-05-23T06:03:00.717Z,4.20
2023-05-23T06:05:29.557Z,4.93
2023-05-23T06:07:57.015Z,5.07
2023-05-23T06:10:24.954Z,5.30
2023-05-23T06:13:10.706Z,4.60
2023-05-23T06:15:38.225Z,5.05
2023-05-23T06:18:05.846Z,5.35
2023-05-23T06:20:34.628Z,6.18
2023-05-23T06:23:05.417Z,6.28
2023-05-23T06:25:32.942Z,6.53
2023-05-23T06:28:00.840Z,7.63
2023-05-23T06:30:29.428Z,6.38
2023-05-23T06:32:57.022Z,7.57
2023-05-23T06:35:24.486Z,6.05
2023-05-23T06:37:53.212Z,7.07
2023-05-23T06:40:20.899Z,6.53
2023-05-23T06:42:48.560Z,6.88
2023-05-23T06:45:16.717Z,6.40
2023-05-23T06:47:45.874Z,6.30
2023-05-23T06:50:13.358Z,6.65
2023-05-23T06:52:42.675Z,6.90
2023-05-23T06:55:14.501Z,6.00
2023-05-23T06:57:41.970Z,6.43
2023-05-23T07:00:10.492Z,6.20
2023-05-23T07:02:37.918Z,6.65
2023-05-23T07:05:06.221Z,6.10
2023-05-23T07:07:33.713Z,5.93
2023-05-23T07:10:01.173Z,6.53
2023-05-23T07:12:29.949Z,5.93
2023-05-23T07:14:57.617Z,6.25
2023-05-23T07:17:25.523Z,6.50
2023-05-23T07:19:52.938Z,6.53
2023-05-23T07:22:20.458Z,6.15
2023-05-23T07:24:47.922Z,5.63
2023-05-23T07:27:15.360Z,6.20
2023-05-23T07:29:44.114Z,5.00
2023-05-23T07:32:11.586Z,5.75
2023-05-23T07:34:39.122Z,5.20
2023-05-23T07:37:06.913Z,5.78
2023-05-23T07:39:34.609Z,5.07
2023-05-23T07:42:02.037Z,5.50
2023-05-23T07:44:29.676Z,4.63
2023-05-23T07:46:58.531Z,4.45
2023-05-23T07:49:26.667Z,4.70
2023-05-23T07:51:54.081Z,5.18
2023-05-23T07:54:21.483Z,5.80
2023-05-23T07:56:48.870Z,4.40
2023-05-23T07:59:16.703Z,5.07
2023-05-23T08:01:44.830Z,5.15
2023-05-23T08:04:13.769Z,5.18
2023-05-23T08:06:48.746Z,5.97
2023-05-23T08:09:19.466Z,5.80
2023-05-23T08:11:46.867Z,5.47
2023-05-23T08:14:14.680Z,4.82
2023-05-23T08:16:42.642Z,4.55
2023-05-23T08:19:10.216Z,5.03
2023-05-23T08:21:38.960Z,4.60
2023-05-23T08:24:06.658Z,5.20
2023-05-23T08:26:34.935Z,4.68
2023-05-23T08:29:03.708Z,5.00
2023-05-23T08:31:31.199Z,5.07
2023-05-23T08:33:58.845Z,5.03
2023-05-23T08:36:26.392Z,5.55
2023-05-23T08:38:55.581Z,4.43
2023-05-23T08:41:24.945Z,4.93
2023-05-23T08:43:52.677Z,4.25
2023-05-23T08:46:20.308Z,5.45
2023-05-23T08:48:54.654Z,4.95
2023-05-23T08:51:23.394Z,5.22
2023-05-23T08:53:53.588Z,4.55
2023-05-23T08:56:23.000Z,4.63
2023-05-23T08:58:53.155Z,4.78
2023-05-23T09:01:21.590Z,4.30
2023-05-23T09:03:50.301Z,4.75
2023-05-23T09:06:18.851Z,3.67
2023-05-23T09:08:46.659Z,4.35
2023-05-23T09:11:14.738Z,4.13
2023-05-23T09:13:43.464Z,4.68
2023-05-23T09:16:12.644Z,4.78
2023-05-23T09:18:42.435Z,5.47
2023-05-23T09:21:10.728Z,5.20
2023-05-23T09:23:40.572Z,5.40
2023-05-23T09:26:11.589Z,5.22
2023-05-23T09:28:40.418Z,5.68
2023-05-23T09:31:10.498Z,6.30
2023-05-23T09:33:41.031Z,5.95
2023-05-23T09:36:08.867Z,6.25
2023-05-23T09:38:39.363Z,7.55
2023-05-23T09:41:07.217Z,8.48
2023-05-23T09:43:34.644Z,7.55
2023-05-23T09:46:02.886Z,8.93
2023-05-23T09:48:32.150Z,8.95
2023-05-23T09:51:01.110Z,9.15
2023-05-23T09:53:30.814Z,8.82
2023-05-23T09:56:00.449Z,10.65
2023-05-23T09:58:29.144Z,8.15
2023-05-23T10:00:58.079Z,8.27
2023-05-23T10:03:32.226Z,8.68
2023-05-23T10:06:09.622Z,11.05
2023-05-23T10:08:40.856Z,9.38
2023-05-23T10:11:50.361Z,9.63
2023-05-23T10:14:18.714Z,7.78
2023-05-23T10:16:56.560Z,7.93
2023-05-23T10:19:26.338Z,6.80
2023-05-23T10:22:01.593Z,7.05
2023-05-23T10:24:30.128Z,6.05
2023-05-23T10:26:59.020Z,6.28
2023-05-23T10:29:27.560Z,4.68
2023-05-23T10:31:56.414Z,4.28
2023-05-23T10:34:28.794Z,3.92
2023-05-23T10:37:01.989Z,4.72
2023-05-23T10:39:41.506Z,3.50
2023-05-23T10:42:17.648Z,4.28
2023-05-23T10:44:45.168Z,3.95
2023-05-23T10:47:13.064Z,4.25
2023-05-23T10:49:42.307Z,4.40
2023-05-23T10:52:13.780Z,4.45
2023-05-23T10:54:45.556Z,4.10
2023-05-23T10:57:17.528Z,3.25
2023-05-23T10:59:46.901Z,3.72
2023-05-23T11:02:16.292Z,3.50
2023-05-23T11:04:43.905Z,2.90
2023-05-23T11:07:31.143Z,3.08
2023-05-23T11:10:05.582Z,3.58
2023-05-23T11:13:08.123Z,3.13
2023-05-23T11:15:45.052Z,3.67
2023-05-23T11:18:21.362Z,4.22
2023-05-23T11:20:52.358Z,4.53
2023-05-23T11:23:23.451Z,4.50
2023-05-23T11:25:52.240Z,4.20
2023-05-23T11:28:19.881Z,4.07
2023-05-23T11:30:50.306Z,3.40
2023-05-23T11:33:18.743Z,4.25
2023-05-23T11:35:47.844Z,3.75
2023-05-23T11:38:16.624Z,3.70
2023-05-23T11:40:47.335Z,3.75
2023-05-23T11:43:15.759Z,3.38
2023-05-23T11:45:43.896Z,4.20
2023-05-23T11:48:12.769Z,3.65
2023-05-23T11:50:49.623Z,3.40
2023-05-23T11:53:20.505Z,3.45
2023-05-23T11:55:56.563Z,3.85
2023-05-23T11:58:27.060Z,3.60
2023-05-23T12:00:59.903Z,3.85
2023-05-23T12:03:27.605Z,4.05
2023-05-23T12:05:56.088Z,4.13
2023-05-23T12:08:23.676Z,3.53
2023-05-23T12:10:54.279Z,3.90
2023-05-23T12:13:25.160Z,3.88
2023-05-23T12:15:57.613Z,4.22
2023-05-23T12:18:25.512Z,3.70
2023-05-23T12:20:53.337Z,4.32
2023-05-23T12:23:22.096Z,4.05
2023-05-23T12:25:53.262Z,3.90
2023-05-23T12:28:20.901Z,3.83
2023-05-23T12:30:49.510Z,4.40
2023-05-23T12:33:19.552Z,4.35
2023-05-23T12:35:47.074Z,3.58
2023-05-23T12:38:17.254Z,4.45
2023-05-23T12:40:44.723Z,4.30
2023-05-23T12:43:16.253Z,4.43
2023-05-23T12:45:43.984Z,4.82
2023-05-23T12:48:12.802Z,3.80
2023-05-23T12:50:43.571Z,4.20
2023-05-23T12:53:11.364Z,3.90
2023-05-23T12:55:39.175Z,3.42
2023-05-23T12:58:07.153Z,3.15
2023-05-23T13:00:35.884Z,2.95
2023-05-23T13:03:03.378Z,2.45
2023-05-23T13:05:30.867Z,2.53
2023-05-23T13:07:59.508Z,2.63
2023-05-23T13:10:27.746Z,3.08
2023-05-23T13:12:56.376Z,3.28
2023-05-23T13:15:23.838Z,3.05
2023-05-23T13:17:52.891Z,2.55
2023-05-23T13:20:20.474Z,2.75
2023-05-23T13:22:49.572Z,2.33
2023-05-23T13:25:17.166Z,2.30
2023-05-23T13:27:49.264Z,2.65
2023-05-23T13:30:17.217Z,2.47
2023-05-23T13:32:49.567Z,1.92
2023-05-23T13:35:22.596Z,1.95
2023-05-23T13:37:50.162Z,2.50
2023-05-23T13:40:22.546Z,2.35
2023-05-23T13:42:53.576Z,3.83
2023-05-23T13:45:22.560Z,3.03
2023-05-23T13:47:50.409Z,2.63
2023-05-23T13:50:18.395Z,2.97
2023-05-23T13:52:49.293Z,2.83
2023-05-23T13:58:09.855Z,3.50
2023-05-23T14:00:37.667Z,3.33
2023-05-23T14:03:05.228Z,2.55
2023-05-23T14:05:34.624Z,2.75
2023-05-23T14:08:04.360Z,3.42
2023-05-23T14:10:36.575Z,2.90
2023-05-23T14:13:04.019Z,2.53
2023-05-23T14:15:33.622Z,2.65
2023-05-23T14:18:02.049Z,2.58
2023-05-23T14:20:29.855Z,2.70
2023-05-23T14:22:57.290Z,2.72
2023-05-23T14:25:26.224Z,2.13
2023-05-23T14:27:55.605Z,2.17
2023-05-23T14:30:23.052Z,2.33
2023-05-23T14:32:50.579Z,1.75
2023-05-23T14:35:18.191Z,1.48
2023-05-23T14:37:46.292Z,1.55
2023-05-23T14:40:17.555Z,1.48
2023-05-23T14:42:46.329Z,1.10
2023-05-23T14:45:14.456Z,1.20
2023-05-23T14:47:43.289Z,1.65
2023-05-23T14:50:11.988Z,1.30
2023-05-23T14:52:42.564Z,1.13
2023-05-23T14:55:10.067Z,1.52
2023-05-23T14:57:37.551Z,1.55
2023-05-23T15:00:08.036Z,1.80
2023-05-23T15:02:37.627Z,1.60
2023-05-23T15:05:05.500Z,1.70
2023-05-23T15:07:33.298Z,1.83
2023-05-23T15:10:00.875Z,1.90
2023-05-23T15:12:29.255Z,1.50
2023-05-23T15:15:03.231Z,1.60
2023-05-23T15:17:33.550Z,2.03
2023-05-23T15:20:01.061Z,2.10
2023-05-23T15:25:03.664Z,1.65
2023-05-23T15:27:31.428Z,2.75
2023-05-23T15:29:59.002Z,2.05
2023-05-23T15:32:26.562Z,2.35
2023-05-23T15:34:55.504Z,1.80
2023-05-23T15:37:23.063Z,1.38
2023-05-23T15:39:50.720Z,1.92
2023-05-23T15:42:18.180Z,2.13
2023-05-23T15:44:47.541Z,2.20
2023-05-23T15:47:18.557Z,2.35
2023-05-23T15:49:45.987Z,2.50
2023-05-23T15:52:14.830Z,2.08
2023-05-23T15:54:42.281Z,1.60
2023-05-23T15:57:11.541Z,1.85
2023-05-23T15:59:40.099Z,1.50
2023-05-23T16:02:10.155Z,1.30
2023-05-23T16:04:38.826Z,1.35
2023-05-23T16:07:06.462Z,1.05
2023-05-23T16:09:35.433Z,1.75
2023-05-23T16:12:02.925Z,1.08
2023-05-23T16:14:31.239Z,1.00
2023-05-23T16:17:02.737Z,1.27
2023-05-23T16:19:35.768Z,1.35
2023-05-23T16:22:03.374Z,1.20
2023-05-23T16:24:30.906Z,1.67
2023-05-23T16:27:00.317Z,1.30
2023-05-23T16:29:27.796Z,1.45
2023-05-23T16:31:55.293Z,1.60
2023-05-23T16:34:24.538Z,1.90
2023-05-23T16:36:51.971Z,1.52
2023-05-23T16:39:19.455Z,1.40
2023-05-23T16:41:50.841Z,1.48
2023-05-23T16:44:19.611Z,1.17
2023-05-23T16:46:47.127Z,1.50
2023-05-23T16:49:14.571Z,1.83
2023-05-23T16:51:42.107Z,1.13
2023-05-23T16:54:09.760Z,1.42
2023-05-23T16:56:38.934Z,1.50
2023-05-23T16:59:06.642Z,1.58
2023-05-23T17:01:38.576Z,1.50
2023-05-23T17:04:09.572Z,1.20
2023-05-23T17:06:37.352Z,1.10
2023-05-23T17:09:08.520Z,1.35
2023-05-23T17:11:37.528Z,1.25
2023-05-23T17:14:05.213Z,1.27
2023-05-23T17:16:36.618Z,1.10
2023-05-23T17:19:05.621Z,0.90
2023-05-23T17:21:33.531Z,1.52
2023-05-23T17:24:02.568Z,1.48
2023-05-23T17:26:31.527Z,1.05
2023-05-23T17:28:59.062Z,1.00
2023-05-23T17:31:30.864Z,1.27
2023-05-23T17:33:58.599Z,1.17
2023-05-23T17:39:19.190Z,1.00
2023-05-23T17:41:46.681Z,0.90
2023-05-23T17:44:14.105Z,1.20
2023-05-23T17:46:41.732Z,1.02
2023-05-23T17:49:09.259Z,1.10
2023-05-23T17:51:38.381Z,1.30
2023-05-23T17:54:09.528Z,1.20
2023-05-23T17:56:37.418Z,1.05
2023-05-23T17:59:05.491Z,0.80
2023-05-23T18:01:34.223Z,1.00
2023-05-23T18:04:05.607Z,1.05
2023-05-23T18:06:33.080Z,0.88
2023-05-23T18:09:01.908Z,0.98
2023-05-23T18:11:30.336Z,0.80
2023-05-23T18:13:57.737Z,0.80
2023-05-23T18:16:25.156Z,0.73
2023-05-23T18:18:52.669Z,1.17
2023-05-23T18:21:20.275Z,0.77
2023-05-23T18:23:47.778Z,0.75
2023-05-23T18:26:16.496Z,0.70
2023-05-23T18:28:43.958Z,1.00
2023-05-23T18:31:11.528Z,1.13
2023-05-23T18:33:39.054Z,1.08
2023-05-23T18:36:07.135Z,0.90
2023-05-23T18:38:34.656Z,1.15
2023-05-23T18:41:02.229Z,1.15
2023-05-23T18:43:32.531Z,1.58
2023-05-23T18:46:00.063Z,1.20
2023-05-23T18:48:27.528Z,1.23
2023-05-23T18:50:54.941Z,0.98
2023-05-23T18:53:25.501Z,1.55
2023-05-23T18:55:52.907Z,1.70
2023-05-23T18:58:20.533Z,1.50
2023-05-23T19:00:49.450Z,1.50
2023-05-23T19:03:17.636Z,1.98
2023-05-23T19:05:48.511Z,1.98
2023-05-23T19:08:16.140Z,2.33
2023-05-23T19:10:47.519Z,2.63
2023-05-23T19:13:16.885Z,2.72
2023-05-23T19:15:46.632Z,2.72
2023-05-23T19:18:18.527Z,3.00
2023-05-23T19:20:46.863Z,2.92
2023-05-23T19:23:14.741Z,3.35
2023-05-23T19:25:42.959Z,3.95
2023-05-23T19:28:13.520Z,3.28
2023-05-23T19:30:41.090Z,3.70
2023-05-23T19:33:08.823Z,4.13
2023-05-23T19:35:41.581Z,4.05
2023-05-23T19:38:09.074Z,4.03
2023-05-23T19:40:36.848Z,3.35
2023-05-23T19:45:55.356Z,3.85
2023-05-23T19:48:22.896Z,3.22
2023-05-23T19:50:51.652Z,3.92
2023-05-23T19:53:19.126Z,3.42
2023-05-23T19:55:46.565Z,3.08
2023-05-23T19:58:17.486Z,3.40
2023-05-23T20:00:45.185Z,4.22
2023-05-23T20:03:12.735Z,3.40
2023-05-23T20:06:04.215Z,2.92
2023-05-23T20:08:33.039Z,3.45
2023-05-23T20:11:00.485Z,4.35
2023-05-23T20:13:28.416Z,3.63
2023-05-23T20:15:55.896Z,3.97
2023-05-23T20:18:23.602Z,4.07
2023-05-23T20:20:51.075Z,5.07
2023-05-23T20:23:18.609Z,2.80
2023-05-23T20:25:50.507Z,2.90
2023-05-23T20:28:18.034Z,3.35
2023-05-23T20:30:45.935Z,2.28
2023-05-23T20:33:15.488Z,3.38
2023-05-23T20:35:43.482Z,2.90
2023-05-23T20:38:11.395Z,3.97
2023-05-23T20:40:38.901Z,3.05
2023-05-23T20:43:07.684Z,3.08
2023-05-23T20:45:35.122Z,2.90
2023-05-23T20:48:02.565Z,2.50
2023-05-23T20:50:31.336Z,3.17
2023-05-23T20:53:00.674Z,2.30
2023-05-23T20:55:29.554Z,2.90
2023-05-23T20:57:56.976Z,2.80
2023-05-23T21:00:25.808Z,1.92
2023-05-23T21:02:56.705Z,2.45
2023-05-23T21:05:24.388Z,3.45
2023-05-23T21:07:51.819Z,2.33
2023-05-23T21:10:22.465Z,2.13
2023-05-23T21:12:50.842Z,2.28
2023-05-23T21:15:19.063Z,2.22
2023-05-23T21:17:48.070Z,3.78
2023-05-23T21:20:16.184Z,2.65
2023-05-23T21:22:43.715Z,3.72
2023-05-23T21:25:14.486Z,2.70
2023-05-23T21:27:42.155Z,3.25
2023-05-23T21:30:10.664Z,3.15
2023-05-23T21:32:38.182Z,3.00
2023-05-23T21:35:08.518Z,2.72
2023-05-23T21:37:36.049Z,2.97
2023-05-23T21:40:03.656Z,3.03
2023-05-23T21:42:31.700Z,5.05
2023-05-23T21:44:59.110Z,4.05
2023-05-23T21:47:26.551Z,4.65
2023-05-23T21:49:54.080Z,4.50
2023-05-23T21:52:23.373Z,5.30
2023-05-23T21:54:51.602Z,4.80
2023-05-23T21:57:19.059Z,3.95
2023-05-23T21:59:48.472Z,3.92
2023-05-23T22:02:15.971Z,3.05
2023-05-23T22:04:44.764Z,3.58
2023-05-23T22:07:12.338Z,3.10
2023-05-23T22:09:41.209Z,3.22
2023-05-23T22:12:08.976Z,3.05
2023-05-23T22:14:36.399Z,2.20
2023-05-23T22:17:04.271Z,2.35
2023-05-23T22:19:31.814Z,3.53
2023-05-23T22:21:59.274Z,2.10
2023-05-23T22:24:26.688Z,2.35
2023-05-23T22:26:55.933Z,2.50
2023-05-23T22:29:24.134Z,2.50
2023-05-23T22:31:51.622Z,2.55
2023-05-23T22:34:19.262Z,3.30
2023-05-23T22:36:47.833Z,4.10
2023-05-23T22:39:15.278Z,2.17
2023-05-23T22:41:42.771Z,2.90
2023-05-23T22:44:11.866Z,3.08
2023-05-23T22:46:39.650Z,2.85
2023-05-23T22:49:08.779Z,2.55
2023-05-23T22:51:36.195Z,2.60
2023-05-23T22:54:03.938Z,2.10
2023-05-23T22:56:31.375Z,2.35
2023-05-23T22:58:58.868Z,2.08
2023-05-23T23:01:27.682Z,1.80
2023-05-23T23:03:55.239Z,1.73
2023-05-23T23:06:22.682Z,1.92
2023-05-23T23:08:50.542Z,2.17
2023-05-23T23:11:18.123Z,2.10
2023-05-23T23:13:45.795Z,1.83
2023-05-23T23:16:13.251Z,2.17
2023-05-23T23:18:42.202Z,2.85
2023-05-23T23:21:09.609Z,2.25
2023-05-23T23:23:38.268Z,2.00
2023-05-23T23:26:05.726Z,2.28
2023-05-23T23:28:33.158Z,1.50
2023-05-23T23:31:00.897Z,2.42
2023-05-23T23:33:28.355Z,1.98
2023-05-23T23:35:57.671Z,3.90
2023-05-23T23:38:25.085Z,2.22
2023-05-23T23:40:52.487Z,1.63
2023-05-23T23:43:19.905Z,1.95
2023-05-23T23:45:47.387Z,2.13
2023-05-23T23:48:14.932Z,1.38
2023-05-23T23:50:42.660Z,2.00
2023-05-23T23:53:12.541Z,1.52
2023-05-23T23:55:40.027Z,1.80
2023-05-23T23:58:07.464Z,1.67
